sensor_id;sensor_type;location;lat;lon;timestamp;P1;durP1;ratioP1;P2;durP2;ratioP2
63394;SDS011;49531;-34.520;150.798;2023-11-21T00:00:42;2.22;;;1.02;;
63394;SDS011;49531;-34.520;150.798;2023-11-21T00:03:11;1.67;;;0.82;;
63394;SDS011;49531;-34.520;150.798;2023-11-21T00:05:40;1.75;;;0.90;;
63394;SDS011;49531;-34.520;150.798;2023-11-21T00:08:09;1.92;;;0.95;;
63394;SDS011;49531;-34.520;150.798;2023-11-21T00:10:37;1.80;;;0.80;;
63394;SDS011;49531;-34.520;150.798;2023-11-21T00:13:07;3.40;;;0.90;;
63394;SDS011;49531;-34.520;150.798;2023-11-21T00:15:34;1.77;;;0.80;;
63394;SDS011;49531;-34.520;150.798;2023-11-21T00:18:04;2.22;;;0.73;;
63394;SDS011;49531;-34.520;150.798;2023-11-21T00:20:31;2.50;;;1.00;;
63394;SDS011;49531;-34.520;150.798;2023-11-21T00:22:58;2.45;;;0.90;;
63394;SDS011;49531;-34.520;150.798;2023-11-21T00:25:34;2.47;;;0.80;;
63394;SDS011;49531;-34.520;150.798;2023-11-21T00:28:01;3.20;;;0.75;;
63394;SDS011;49531;-34.520;150.798;2023-11-21T00:30:28;2.67;;;0.85;;
63394;SDS011;49531;-34.520;150.798;2023-11-21T00:32:56;2.42;;;0.90;;
63394;SDS011;49531;-34.520;150.798;2023-11-21T00:35:23;0.60;;;0.60;;
63394;SDS011;49531;-34.520;150.798;2023-11-21T00:37:51;1.55;;;0.75;;
63394;SDS011;49531;-34.520;150.798;2023-11-21T00:40:18;2.67;;;0.80;;
63394;SDS011;49531;-34.520;150.798;2023-11-21T00:42:47;1.42;;;0.80;;
63394;SDS011;49531;-34.520;150.798;2023-11-21T00:45:14;1.60;;;0.70;;
63394;SDS011;49531;-34.520;150.798;2023-11-21T00:47:41;0.93;;;0.60;;
63394;SDS011;49531;-34.520;150.798;2023-11-21T00:50:08;1.83;;;0.60;;
63394;SDS011;49531;-34.520;150.798;2023-11-21T00:52:36;1.35;;;0.70;;
63394;SDS011;49531;-34.520;150.798;2023-11-21T00:55:06;1.27;;;0.70;;
63394;SDS011;49531;-34.520;150.798;2023-11-21T00:57:34;1.10;;;0.60;;
63394;SDS011;49531;-34.520;150.798;2023-11-21T01:00:05;2.58;;;0.70;;
63394;SDS011;49531;-34.520;150.798;2023-11-21T01:02:38;1.15;;;0.55;;
63394;SDS011;49531;-34.520;150.798;2023-11-21T01:05:06;1.58;;;0.60;;
63394;SDS011;49531;-34.520;150.798;2023-11-21T01:07:33;0.55;;;0.50;;
63394;SDS011;49531;-34.520;150.798;2023-11-21T01:10:02;1.10;;;0.60;;
63394;SDS011;49531;-34.520;150.798;2023-11-21T01:12:36;0.85;;;0.50;;
63394;SDS011;49531;-34.520;150.798;2023-11-21T01:15:04;1.17;;;0.55;;
63394;SDS011;49531;-34.520;150.798;2023-11-21T01:17:52;3.40;;;0.52;;
63394;SDS011;49531;-34.520;150.798;2023-11-21T01:20:27;1.15;;;0.60;;
63394;SDS011;49531;-34.520;150.798;2023-11-21T01:23:05;1.30;;;0.60;;
63394;SDS011;49531;-34.520;150.798;2023-11-21T01:25:32;0.40;;;0.40;;
63394;SDS011;49531;-34.520;150.798;2023-11-21T01:28:00;1.00;;;0.50;;
63394;SDS011;49531;-34.520;150.798;2023-11-21T01:30:27;1.17;;;0.57;;
63394;SDS011;49531;-34.520;150.798;2023-11-21T01:32:54;1.15;;;0.40;;
63394;SDS011;49531;-34.520;150.798;2023-11-21T01:35:22;0.40;;;0.40;;
63394;SDS011;49531;-34.520;150.798;2023-11-21T01:37:49;1.33;;;0.57;;
63394;SDS011;49531;-34.520;150.798;2023-11-21T01:40:17;2.90;;;0.50;;
63394;SDS011;49531;-34.520;150.798;2023-11-21T01:42:44;1.30;;;0.40;;
63394;SDS011;49531;-34.520;150.798;2023-11-21T01:45:13;2.78;;;0.68;;
63394;SDS011;49531;-34.520;150.798;2023-11-21T01:47:40;2.20;;;0.70;;
63394;SDS011;49531;-34.520;150.798;2023-11-21T01:50:08;2.03;;;0.60;;
63394;SDS011;49531;-34.520;150.798;2023-11-21T01:52:53;1.75;;;0.60;;
63394;SDS011;49531;-34.520;150.798;2023-11-21T01:55:31;1.80;;;0.70;;
63394;SDS011;49531;-34.520;150.798;2023-11-21T01:58:30;0.60;;;0.60;;
63394;SDS011;49531;-34.520;150.798;2023-11-21T02:01:46;2.08;;;0.70;;
63394;SDS011;49531;-34.520;150.798;2023-11-21T02:04:39;2.65;;;0.70;;
63394;SDS011;49531;-34.520;150.798;2023-11-21T02:07:21;1.95;;;0.65;;
63394;SDS011;49531;-34.520;150.798;2023-11-21T02:10:35;1.13;;;0.75;;
63394;SDS011;49531;-34.520;150.798;2023-11-21T02:13:26;0.80;;;0.60;;
63394;SDS011;49531;-34.520;150.798;2023-11-21T02:16:16;1.52;;;0.50;;
63394;SDS011;49531;-34.520;150.798;2023-11-21T02:18:55;1.15;;;0.50;;
63394;SDS011;49531;-34.520;150.798;2023-11-21T02:21:57;0.98;;;0.50;;
63394;SDS011;49531;-34.520;150.798;2023-11-21T02:24:42;0.73;;;0.50;;
63394;SDS011;49531;-34.520;150.798;2023-11-21T02:27:14;0.60;;;0.50;;
63394;SDS011;49531;-34.520;150.798;2023-11-21T02:29:59;1.15;;;0.50;;
63394;SDS011;49531;-34.520;150.798;2023-11-21T02:38:26;0.50;;;0.40;;
63394;SDS011;49531;-34.520;150.798;2023-11-21T02:41:20;0.43;;;0.40;;
63394;SDS011;49531;-34.520;150.798;2023-11-21T02:44:05;0.40;;;0.40;;
63394;SDS011;49531;-34.520;150.798;2023-11-21T02:46:44;0.68;;;0.50;;
63394;SDS011;49531;-34.520;150.798;2023-11-21T02:49:50;0.45;;;0.45;;
63394;SDS011;49531;-34.520;150.798;2023-11-21T02:52:25;2.60;;;0.50;;
63394;SDS011;49531;-34.520;150.798;2023-11-21T02:55:14;0.98;;;0.50;;
63394;SDS011;49531;-34.520;150.798;2023-11-21T02:58:28;0.60;;;0.40;;
63394;SDS011;49531;-34.520;150.798;2023-11-21T03:01:01;0.40;;;0.40;;
63394;SDS011;49531;-34.520;150.798;2023-11-21T03:03:41;0.50;;;0.50;;
63394;SDS011;49531;-34.520;150.798;2023-11-21T03:06:32;0.73;;;0.40;;
63394;SDS011;49531;-34.520;150.798;2023-11-21T03:09:04;1.42;;;0.50;;
63394;SDS011;49531;-34.520;150.798;2023-11-21T03:11:45;1.20;;;0.40;;
63394;SDS011;49531;-34.520;150.798;2023-11-21T03:14:53;0.90;;;0.40;;
63394;SDS011;49531;-34.520;150.798;2023-11-21T03:23:42;0.68;;;0.50;;
63394;SDS011;49531;-34.520;150.798;2023-11-21T03:26:27;1.90;;;0.50;;
63394;SDS011;49531;-34.520;150.798;2023-11-21T03:29:02;0.95;;;0.50;;
63394;SDS011;49531;-34.520;150.798;2023-11-21T03:31:38;1.60;;;0.60;;
63394;SDS011;49531;-34.520;150.798;2023-11-21T03:34:42;0.93;;;0.50;;
63394;SDS011;49531;-34.520;150.798;2023-11-21T03:37:32;1.80;;;0.50;;
63394;SDS011;49531;-34.520;150.798;2023-11-21T03:40:24;2.40;;;0.60;;
63394;SDS011;49531;-34.520;150.798;2023-11-21T03:42:57;3.03;;;0.70;;
63394;SDS011;49531;-34.520;150.798;2023-11-21T03:45:53;4.28;;;0.90;;
63394;SDS011;49531;-34.520;150.798;2023-11-21T03:48:53;4.47;;;1.08;;
63394;SDS011;49531;-34.520;150.798;2023-11-21T03:52:04;3.13;;;0.70;;
63394;SDS011;49531;-34.520;150.798;2023-11-21T03:54:41;3.22;;;0.70;;
63394;SDS011;49531;-34.520;150.798;2023-11-21T03:57:21;3.90;;;0.90;;
63394;SDS011;49531;-34.520;150.798;2023-11-21T03:59:58;3.50;;;0.90;;
63394;SDS011;49531;-34.520;150.798;2023-11-21T04:03:00;5.45;;;0.80;;
63394;SDS011;49531;-34.520;150.798;2023-11-21T04:06:07;6.07;;;0.82;;
63394;SDS011;49531;-34.520;150.798;2023-11-21T04:08:45;5.25;;;0.70;;
63394;SDS011;49531;-34.520;150.798;2023-11-21T04:11:20;3.03;;;0.85;;
63394;SDS011;49531;-34.520;150.798;2023-11-21T04:13:49;3.55;;;0.80;;
63394;SDS011;49531;-34.520;150.798;2023-11-21T04:16:41;4.32;;;0.90;;
63394;SDS011;49531;-34.520;150.798;2023-11-21T04:19:16;2.30;;;0.73;;
63394;SDS011;49531;-34.520;150.798;2023-11-21T04:24:53;5.22;;;0.85;;
63394;SDS011;49531;-34.520;150.798;2023-11-21T04:27:28;2.78;;;0.60;;
63394;SDS011;49531;-34.520;150.798;2023-11-21T04:29:58;3.58;;;0.85;;
63394;SDS011;49531;-34.520;150.798;2023-11-21T04:32:25;4.47;;;2.40;;
63394;SDS011;49531;-34.520;150.798;2023-11-21T04:34:52;3.28;;;1.10;;
63394;SDS011;49531;-34.520;150.798;2023-11-21T04:37:19;5.20;;;0.98;;
63394;SDS011;49531;-34.520;150.798;2023-11-21T04:39:47;3.78;;;0.85;;
63394;SDS011;49531;-34.520;150.798;2023-11-21T04:42:17;1.98;;;0.82;;
63394;SDS011;49531;-34.520;150.798;2023-11-21T04:44:44;4.43;;;0.73;;
63394;SDS011;49531;-34.520;150.798;2023-11-21T04:47:16;4.50;;;0.73;;
63394;SDS011;49531;-34.520;150.798;2023-11-21T04:49:46;3.28;;;0.68;;
63394;SDS011;49531;-34.520;150.798;2023-11-21T04:52:16;2.65;;;0.57;;
63394;SDS011;49531;-34.520;150.798;2023-11-21T04:54:43;1.15;;;0.65;;
63394;SDS011;49531;-34.520;150.798;2023-11-21T04:57:10;2.13;;;0.65;;
63394;SDS011;49531;-34.520;150.798;2023-11-21T04:59:37;2.42;;;0.70;;
63394;SDS011;49531;-34.520;150.798;2023-11-21T05:02:08;3.63;;;0.93;;
63394;SDS011;49531;-34.520;150.798;2023-11-21T05:04:35;1.98;;;0.70;;
63394;SDS011;49531;-34.520;150.798;2023-11-21T05:07:05;1.58;;;0.65;;
63394;SDS011;49531;-34.520;150.798;2023-11-21T05:09:32;1.92;;;0.70;;
63394;SDS011;49531;-34.520;150.798;2023-11-21T05:12:04;2.58;;;0.82;;
63394;SDS011;49531;-34.520;150.798;2023-11-21T05:14:31;2.58;;;0.60;;
63394;SDS011;49531;-34.520;150.798;2023-11-21T05:16:59;2.65;;;0.70;;
63394;SDS011;49531;-34.520;150.798;2023-11-21T05:19:29;1.80;;;0.80;;
63394;SDS011;49531;-34.520;150.798;2023-11-21T05:21:59;4.05;;;0.82;;
63394;SDS011;49531;-34.520;150.798;2023-11-21T05:24:39;2.60;;;0.80;;
63394;SDS011;49531;-34.520;150.798;2023-11-21T05:27:08;1.67;;;0.70;;
63394;SDS011;49531;-34.520;150.798;2023-11-21T05:29:38;2.53;;;0.80;;
63394;SDS011;49531;-34.520;150.798;2023-11-21T05:32:13;1.52;;;0.77;;
63394;SDS011;49531;-34.520;150.798;2023-11-21T05:34:44;2.17;;;1.00;;
63394;SDS011;49531;-34.520;150.798;2023-11-21T05:37:23;3.13;;;0.80;;
63394;SDS011;49531;-34.520;150.798;2023-11-21T05:40:28;3.30;;;0.90;;
63394;SDS011;49531;-34.520;150.798;2023-11-21T05:43:13;1.77;;;0.60;;
63394;SDS011;49531;-34.520;150.798;2023-11-21T05:45:45;2.55;;;0.73;;
63394;SDS011;49531;-34.520;150.798;2023-11-21T05:48:19;3.08;;;0.70;;
63394;SDS011;49531;-34.520;150.798;2023-11-21T05:50:55;3.72;;;0.60;;
63394;SDS011;49531;-34.520;150.798;2023-11-21T05:53:43;1.00;;;0.60;;
63394;SDS011;49531;-34.520;150.798;2023-11-21T05:56:22;2.13;;;0.60;;
63394;SDS011;49531;-34.520;150.798;2023-11-21T05:58:54;2.38;;;0.75;;
63394;SDS011;49531;-34.520;150.798;2023-11-21T06:01:21;1.15;;;0.50;;
63394;SDS011;49531;-34.520;150.798;2023-11-21T06:03:57;3.88;;;0.85;;
63394;SDS011;49531;-34.520;150.798;2023-11-21T06:06:31;1.77;;;0.60;;
63394;SDS011;49531;-34.520;150.798;2023-11-21T06:09:05;1.90;;;0.80;;
63394;SDS011;49531;-34.520;150.798;2023-11-21T06:11:44;3.72;;;0.52;;
63394;SDS011;49531;-34.520;150.798;2023-11-21T06:14:18;3.05;;;0.77;;
63394;SDS011;49531;-34.520;150.798;2023-11-21T06:19:57;1.23;;;0.60;;
63394;SDS011;49531;-34.520;150.798;2023-11-21T06:23:13;1.60;;;0.60;;
63394;SDS011;49531;-34.520;150.798;2023-11-21T06:26:01;1.63;;;0.60;;
63394;SDS011;49531;-34.520;150.798;2023-11-21T06:31:43;1.40;;;0.60;;
63394;SDS011;49531;-34.520;150.798;2023-11-21T06:34:13;2.00;;;0.55;;
63394;SDS011;49531;-34.520;150.798;2023-11-21T06:37:06;1.63;;;0.50;;
63394;SDS011;49531;-34.520;150.798;2023-11-21T06:39:38;0.50;;;0.50;;
63394;SDS011;49531;-34.520;150.798;2023-11-21T06:42:05;0.68;;;0.55;;
63394;SDS011;49531;-34.520;150.798;2023-11-21T06:44:38;1.52;;;0.70;;
63394;SDS011;49531;-34.520;150.798;2023-11-21T06:47:07;0.75;;;0.55;;
63394;SDS011;49531;-34.520;150.798;2023-11-21T06:49:34;1.52;;;0.70;;
63394;SDS011;49531;-34.520;150.798;2023-11-21T06:52:01;1.40;;;0.60;;
63394;SDS011;49531;-34.520;150.798;2023-11-21T06:54:30;1.95;;;0.63;;
63394;SDS011;49531;-34.520;150.798;2023-11-21T06:56:58;1.33;;;0.80;;
63394;SDS011;49531;-34.520;150.798;2023-11-21T06:59:25;2.40;;;0.80;;
63394;SDS011;49531;-34.520;150.798;2023-11-21T07:01:54;2.40;;;0.70;;
63394;SDS011;49531;-34.520;150.798;2023-11-21T07:04:21;1.15;;;0.50;;
63394;SDS011;49531;-34.520;150.798;2023-11-21T07:06:49;1.95;;;0.65;;
63394;SDS011;49531;-34.520;150.798;2023-11-21T07:09:17;0.60;;;0.57;;
63394;SDS011;49531;-34.520;150.798;2023-11-21T07:11:50;3.50;;;1.00;;
63394;SDS011;49531;-34.520;150.798;2023-11-21T07:14:18;2.63;;;1.30;;
63394;SDS011;49531;-34.520;150.798;2023-11-21T07:16:45;5.03;;;1.95;;
63394;SDS011;49531;-34.520;150.798;2023-11-21T07:19:13;4.80;;;2.03;;
63394;SDS011;49531;-34.520;150.798;2023-11-21T07:21:40;7.53;;;2.30;;
63394;SDS011;49531;-34.520;150.798;2023-11-21T07:24:07;6.10;;;2.22;;
63394;SDS011;49531;-34.520;150.798;2023-11-21T07:26:36;4.38;;;2.15;;
63394;SDS011;49531;-34.520;150.798;2023-11-21T07:29:05;4.85;;;2.28;;
63394;SDS011;49531;-34.520;150.798;2023-11-21T07:31:32;4.07;;;2.10;;
63394;SDS011;49531;-34.520;150.798;2023-11-21T07:34:00;3.22;;;2.00;;
63394;SDS011;49531;-34.520;150.798;2023-11-21T07:36:27;3.35;;;1.88;;
63394;SDS011;49531;-34.520;150.798;2023-11-21T07:38:54;5.55;;;2.25;;
63394;SDS011;49531;-34.520;150.798;2023-11-21T07:41:21;3.25;;;1.92;;
63394;SDS011;49531;-34.520;150.798;2023-11-21T07:43:49;2.47;;;1.77;;
63394;SDS011;49531;-34.520;150.798;2023-11-21T07:46:16;3.88;;;1.80;;
63394;SDS011;49531;-34.520;150.798;2023-11-21T07:48:43;3.83;;;1.77;;
63394;SDS011;49531;-34.520;150.798;2023-11-21T07:51:11;3.35;;;1.80;;
63394;SDS011;49531;-34.520;150.798;2023-11-21T07:53:39;2.53;;;1.60;;
63394;SDS011;49531;-34.520;150.798;2023-11-21T07:56:06;3.72;;;1.60;;
63394;SDS011;49531;-34.520;150.798;2023-11-21T07:58:35;3.08;;;1.40;;
63394;SDS011;49531;-34.520;150.798;2023-11-21T08:01:03;2.70;;;1.50;;
63394;SDS011;49531;-34.520;150.798;2023-11-21T08:03:30;2.85;;;1.50;;
63394;SDS011;49531;-34.520;150.798;2023-11-21T08:05:58;2.65;;;1.38;;
63394;SDS011;49531;-34.520;150.798;2023-11-21T08:08:25;1.90;;;1.20;;
63394;SDS011;49531;-34.520;150.798;2023-11-21T08:10:53;2.53;;;1.30;;
63394;SDS011;49531;-34.520;150.798;2023-11-21T08:13:26;1.58;;;1.20;;
63394;SDS011;49531;-34.520;150.798;2023-11-21T08:15:54;3.50;;;1.20;;
63394;SDS011;49531;-34.520;150.798;2023-11-21T08:18:23;2.15;;;1.20;;
63394;SDS011;49531;-34.520;150.798;2023-11-21T08:20:51;2.20;;;1.20;;
63394;SDS011;49531;-34.520;150.798;2023-11-21T08:23:18;1.63;;;1.10;;
63394;SDS011;49531;-34.520;150.798;2023-11-21T08:25:45;1.48;;;1.00;;
63394;SDS011;49531;-34.520;150.798;2023-11-21T08:28:12;1.67;;;1.10;;
63394;SDS011;49531;-34.520;150.798;2023-11-21T08:30:40;1.83;;;0.95;;
63394;SDS011;49531;-34.520;150.798;2023-11-21T08:33:08;1.63;;;0.80;;
63394;SDS011;49531;-34.520;150.798;2023-11-21T08:35:36;0.88;;;0.88;;
63394;SDS011;49531;-34.520;150.798;2023-11-21T08:38:04;1.30;;;0.95;;
63394;SDS011;49531;-34.520;150.798;2023-11-21T08:40:31;1.38;;;0.88;;
63394;SDS011;49531;-34.520;150.798;2023-11-21T08:42:59;1.38;;;1.00;;
63394;SDS011;49531;-34.520;150.798;2023-11-21T08:45:26;1.10;;;0.80;;
63394;SDS011;49531;-34.520;150.798;2023-11-21T08:47:53;1.27;;;0.90;;
63394;SDS011;49531;-34.520;150.798;2023-11-21T08:50:20;2.63;;;0.85;;
63394;SDS011;49531;-34.520;150.798;2023-11-21T08:52:47;2.15;;;0.80;;
63394;SDS011;49531;-34.520;150.798;2023-11-21T08:55:15;1.15;;;0.70;;
63394;SDS011;49531;-34.520;150.798;2023-11-21T08:57:43;0.95;;;0.75;;
63394;SDS011;49531;-34.520;150.798;2023-11-21T09:00:12;0.75;;;0.70;;
63394;SDS011;49531;-34.520;150.798;2023-11-21T09:02:42;1.42;;;0.80;;
63394;SDS011;49531;-34.520;150.798;2023-11-21T09:05:11;1.38;;;0.88;;
63394;SDS011;49531;-34.520;150.798;2023-11-21T09:07:40;1.08;;;0.70;;
63394;SDS011;49531;-34.520;150.798;2023-11-21T09:10:08;1.23;;;0.82;;
63394;SDS011;49531;-34.520;150.798;2023-11-21T09:12:36;2.13;;;0.80;;
63394;SDS011;49531;-34.520;150.798;2023-11-21T09:15:07;1.23;;;0.70;;
63394;SDS011;49531;-34.520;150.798;2023-11-21T09:20:04;1.33;;;0.63;;
63394;SDS011;49531;-34.520;150.798;2023-11-21T09:22:35;1.10;;;0.60;;
63394;SDS011;49531;-34.520;150.798;2023-11-21T09:25:04;1.45;;;0.65;;
63394;SDS011;49531;-34.520;150.798;2023-11-21T09:27:34;1.42;;;0.60;;
63394;SDS011;49531;-34.520;150.798;2023-11-21T09:32:54;2.00;;;0.70;;
63394;SDS011;49531;-34.520;150.798;2023-11-21T09:35:45;1.40;;;0.70;;
63394;SDS011;49531;-34.520;150.798;2023-11-21T09:38:11;0.50;;;0.50;;
63394;SDS011;49531;-34.520;150.798;2023-11-21T09:40:41;1.83;;;0.68;;
63394;SDS011;49531;-34.520;150.798;2023-11-21T09:43:11;1.02;;;0.60;;
63394;SDS011;49531;-34.520;150.798;2023-11-21T09:45:45;1.58;;;0.63;;
63394;SDS011;49531;-34.520;150.798;2023-11-21T09:48:14;0.60;;;0.60;;
63394;SDS011;49531;-34.520;150.798;2023-11-21T09:50:43;0.95;;;0.68;;
63394;SDS011;49531;-34.520;150.798;2023-11-21T09:53:13;1.10;;;0.60;;
63394;SDS011;49531;-34.520;150.798;2023-11-21T09:55:48;1.67;;;0.63;;
63394;SDS011;49531;-34.520;150.798;2023-11-21T09:58:22;0.68;;;0.50;;
63394;SDS011;49531;-34.520;150.798;2023-11-21T10:03:25;3.13;;;0.75;;
63394;SDS011;49531;-34.520;150.798;2023-11-21T10:05:52;1.67;;;0.70;;
63394;SDS011;49531;-34.520;150.798;2023-11-21T10:08:26;0.95;;;0.60;;
63394;SDS011;49531;-34.520;150.798;2023-11-21T10:10:54;0.63;;;0.60;;
63394;SDS011;49531;-34.520;150.798;2023-11-21T10:13:25;0.70;;;0.50;;
63394;SDS011;49531;-34.520;150.798;2023-11-21T10:15:55;1.80;;;0.68;;
63394;SDS011;49531;-34.520;150.798;2023-11-21T10:18:24;1.48;;;0.50;;
63394;SDS011;49531;-34.520;150.798;2023-11-21T10:20:52;1.77;;;0.50;;
63394;SDS011;49531;-34.520;150.798;2023-11-21T10:23:22;1.15;;;0.52;;
63394;SDS011;49531;-34.520;150.798;2023-11-21T10:25:51;0.95;;;0.55;;
63394;SDS011;49531;-34.520;150.798;2023-11-21T10:28:18;1.73;;;0.50;;
63394;SDS011;49531;-34.520;150.798;2023-11-21T10:30:46;1.20;;;0.60;;
63394;SDS011;49531;-34.520;150.798;2023-11-21T10:33:13;0.98;;;0.60;;
63394;SDS011;49531;-34.520;150.798;2023-11-21T10:35:44;0.93;;;0.50;;
63394;SDS011;49531;-34.520;150.798;2023-11-21T10:38:20;1.88;;;0.60;;
63394;SDS011;49531;-34.520;150.798;2023-11-21T10:40:50;2.05;;;0.50;;
63394;SDS011;49531;-34.520;150.798;2023-11-21T10:43:18;1.45;;;0.60;;
63394;SDS011;49531;-34.520;150.798;2023-11-21T10:45:45;1.77;;;0.60;;
63394;SDS011;49531;-34.520;150.798;2023-11-21T10:48:13;0.85;;;0.50;;
63394;SDS011;49531;-34.520;150.798;2023-11-21T10:50:41;0.80;;;0.60;;
63394;SDS011;49531;-34.520;150.798;2023-11-21T10:53:09;1.00;;;0.50;;
63394;SDS011;49531;-34.520;150.798;2023-11-21T10:55:38;1.10;;;0.50;;
63394;SDS011;49531;-34.520;150.798;2023-11-21T10:58:05;2.42;;;0.60;;
63394;SDS011;49531;-34.520;150.798;2023-11-21T11:00:36;1.02;;;0.60;;
63394;SDS011;49531;-34.520;150.798;2023-11-21T11:03:06;1.17;;;0.50;;
63394;SDS011;49531;-34.520;150.798;2023-11-21T11:05:39;0.88;;;0.50;;
63394;SDS011;49531;-34.520;150.798;2023-11-21T11:08:16;1.83;;;0.60;;
63394;SDS011;49531;-34.520;150.798;2023-11-21T11:10:51;0.85;;;0.50;;
63394;SDS011;49531;-34.520;150.798;2023-11-21T11:13:19;1.15;;;0.60;;
63394;SDS011;49531;-34.520;150.798;2023-11-21T11:15:47;1.00;;;0.50;;
63394;SDS011;49531;-34.520;150.798;2023-11-21T11:18:15;1.00;;;0.50;;
63394;SDS011;49531;-34.520;150.798;2023-11-21T11:20:43;0.68;;;0.60;;
63394;SDS011;49531;-34.520;150.798;2023-11-21T11:26:07;2.20;;;0.80;;
63394;SDS011;49531;-34.520;150.798;2023-11-21T11:37:03;1.00;;;0.75;;
63394;SDS011;49531;-34.520;150.798;2023-11-21T11:39:39;1.75;;;0.88;;
63394;SDS011;49531;-34.520;150.798;2023-11-21T11:42:15;1.08;;;0.70;;
63394;SDS011;49531;-34.520;150.798;2023-11-21T11:44:46;2.53;;;0.88;;
63394;SDS011;49531;-34.520;150.798;2023-11-21T11:47:29;0.90;;;0.80;;
63394;SDS011;49531;-34.520;150.798;2023-11-21T11:50:09;1.85;;;0.80;;
63394;SDS011;49531;-34.520;150.798;2023-11-21T11:52:51;1.73;;;0.80;;
63394;SDS011;49531;-34.520;150.798;2023-11-21T11:55:21;1.25;;;0.80;;
63394;SDS011;49531;-34.520;150.798;2023-11-21T11:57:51;0.88;;;0.73;;
63394;SDS011;49531;-34.520;150.798;2023-11-21T12:00:22;0.80;;;0.80;;
63394;SDS011;49531;-34.520;150.798;2023-11-21T12:03:10;0.82;;;0.70;;
63394;SDS011;49531;-34.520;150.798;2023-11-21T12:05:39;1.23;;;0.80;;
63394;SDS011;49531;-34.520;150.798;2023-11-21T12:08:11;1.42;;;0.80;;
63394;SDS011;49531;-34.520;150.798;2023-11-21T12:10:38;0.80;;;0.80;;
63394;SDS011;49531;-34.520;150.798;2023-11-21T12:13:06;1.23;;;0.88;;
63394;SDS011;49531;-34.520;150.798;2023-11-21T12:15:38;0.70;;;0.70;;
63394;SDS011;49531;-34.520;150.798;2023-11-21T12:18:07;0.82;;;0.80;;
63394;SDS011;49531;-34.520;150.798;2023-11-21T12:20:34;1.10;;;0.80;;
63394;SDS011;49531;-34.520;150.798;2023-11-21T12:23:08;0.80;;;0.80;;
63394;SDS011;49531;-34.520;150.798;2023-11-21T12:25:36;1.40;;;0.80;;
63394;SDS011;49531;-34.520;150.798;2023-11-21T12:28:05;1.55;;;0.90;;
63394;SDS011;49531;-34.520;150.798;2023-11-21T12:30:33;1.17;;;0.77;;
63394;SDS011;49531;-34.520;150.798;2023-11-21T12:33:03;1.40;;;0.90;;
63394;SDS011;49531;-34.520;150.798;2023-11-21T12:35:33;1.00;;;0.90;;
63394;SDS011;49531;-34.520;150.798;2023-11-21T12:38:01;1.75;;;1.00;;
63394;SDS011;49531;-34.520;150.798;2023-11-21T12:40:30;1.48;;;0.80;;
63394;SDS011;49531;-34.520;150.798;2023-11-21T12:42:58;1.48;;;0.70;;
63394;SDS011;49531;-34.520;150.798;2023-11-21T12:45:27;0.77;;;0.77;;
63394;SDS011;49531;-34.520;150.798;2023-11-21T12:50:33;0.98;;;0.80;;
63394;SDS011;49531;-34.520;150.798;2023-11-21T12:55:32;1.27;;;0.77;;
63394;SDS011;49531;-34.520;150.798;2023-11-21T12:58:03;2.42;;;0.82;;
63394;SDS011;49531;-34.520;150.798;2023-11-21T13:00:36;1.25;;;0.80;;
63394;SDS011;49531;-34.520;150.798;2023-11-21T13:03:05;0.85;;;0.80;;
63394;SDS011;49531;-34.520;150.798;2023-11-21T13:05:36;0.80;;;0.80;;
63394;SDS011;49531;-34.520;150.798;2023-11-21T13:08:05;0.70;;;0.70;;
63394;SDS011;49531;-34.520;150.798;2023-11-21T13:10:34;2.13;;;0.70;;
63394;SDS011;49531;-34.520;150.798;2023-11-21T13:13:02;1.27;;;0.80;;
63394;SDS011;49531;-34.520;150.798;2023-11-21T13:15:34;0.75;;;0.75;;
63394;SDS011;49531;-34.520;150.798;2023-11-21T13:18:22;0.70;;;0.70;;
63394;SDS011;49531;-34.520;150.798;2023-11-21T13:20:50;0.70;;;0.70;;
63394;SDS011;49531;-34.520;150.798;2023-11-21T13:23:18;0.90;;;0.70;;
63394;SDS011;49531;-34.520;150.798;2023-11-21T13:25:45;0.77;;;0.75;;
63394;SDS011;49531;-34.520;150.798;2023-11-21T13:28:14;3.08;;;0.90;;
63394;SDS011;49531;-34.520;150.798;2023-11-21T13:30:43;1.00;;;0.80;;
63394;SDS011;49531;-34.520;150.798;2023-11-21T13:33:11;1.40;;;0.70;;
63394;SDS011;49531;-34.520;150.798;2023-11-21T13:35:43;1.00;;;0.90;;
63394;SDS011;49531;-34.520;150.798;2023-11-21T13:38:15;1.17;;;0.90;;
63394;SDS011;49531;-34.520;150.798;2023-11-21T13:40:50;2.63;;;0.77;;
63394;SDS011;49531;-34.520;150.798;2023-11-21T13:43:23;1.55;;;0.88;;
63394;SDS011;49531;-34.520;150.798;2023-11-21T13:45:52;2.43;;;0.70;;
63394;SDS011;49531;-34.520;150.798;2023-11-21T13:48:42;1.30;;;0.77;;
63394;SDS011;49531;-34.520;150.798;2023-11-21T13:51:16;1.10;;;0.80;;
63394;SDS011;49531;-34.520;150.798;2023-11-21T13:53:46;1.38;;;0.80;;
63394;SDS011;49531;-34.520;150.798;2023-11-21T13:56:16;1.70;;;0.80;;
63394;SDS011;49531;-34.520;150.798;2023-11-21T13:58:47;0.95;;;0.70;;
63394;SDS011;49531;-34.520;150.798;2023-11-21T14:01:18;1.15;;;0.90;;
63394;SDS011;49531;-34.520;150.798;2023-11-21T14:03:51;0.73;;;0.73;;
63394;SDS011;49531;-34.520;150.798;2023-11-21T14:06:23;0.77;;;0.70;;
63394;SDS011;49531;-34.520;150.798;2023-11-21T14:08:58;1.42;;;0.88;;
63394;SDS011;49531;-34.520;150.798;2023-11-21T14:11:30;0.80;;;0.70;;
63394;SDS011;49531;-34.520;150.798;2023-11-21T14:13:58;1.35;;;0.82;;
63394;SDS011;49531;-34.520;150.798;2023-11-21T14:16:25;1.58;;;0.90;;
63394;SDS011;49531;-34.520;150.798;2023-11-21T14:18:52;1.75;;;0.70;;
63394;SDS011;49531;-34.520;150.798;2023-11-21T14:21:27;1.17;;;0.82;;
63394;SDS011;49531;-34.520;150.798;2023-11-21T14:23:54;0.88;;;0.80;;
63394;SDS011;49531;-34.520;150.798;2023-11-21T14:26:21;0.88;;;0.70;;
63394;SDS011;49531;-34.520;150.798;2023-11-21T14:28:50;3.53;;;0.82;;
63394;SDS011;49531;-34.520;150.798;2023-11-21T14:31:19;1.35;;;0.80;;
63394;SDS011;49531;-34.520;150.798;2023-11-21T14:33:46;1.17;;;0.60;;
63394;SDS011;49531;-34.520;150.798;2023-11-21T14:36:13;0.80;;;0.60;;
63394;SDS011;49531;-34.520;150.798;2023-11-21T14:38:42;1.60;;;0.80;;
63394;SDS011;49531;-34.520;150.798;2023-11-21T14:41:10;1.30;;;0.70;;
63394;SDS011;49531;-34.520;150.798;2023-11-21T14:43:39;0.80;;;0.70;;
63394;SDS011;49531;-34.520;150.798;2023-11-21T14:46:08;1.40;;;0.77;;
63394;SDS011;49531;-34.520;150.798;2023-11-21T14:48:35;1.17;;;0.80;;
63394;SDS011;49531;-34.520;150.798;2023-11-21T14:53:38;1.20;;;0.70;;
63394;SDS011;49531;-34.520;150.798;2023-11-21T14:56:13;0.63;;;0.55;;
63394;SDS011;49531;-34.520;150.798;2023-11-21T14:58:48;0.60;;;0.60;;
63394;SDS011;49531;-34.520;150.798;2023-11-21T15:01:15;0.60;;;0.60;;
63394;SDS011;49531;-34.520;150.798;2023-11-21T15:04:00;1.63;;;0.70;;
63394;SDS011;49531;-34.520;150.798;2023-11-21T15:06:27;0.93;;;0.70;;
63394;SDS011;49531;-34.520;150.798;2023-11-21T15:08:56;0.88;;;0.70;;
63394;SDS011;49531;-34.520;150.798;2023-11-21T15:11:26;0.80;;;0.60;;
63394;SDS011;49531;-34.520;150.798;2023-11-21T15:13:56;0.70;;;0.60;;
63394;SDS011;49531;-34.520;150.798;2023-11-21T15:16:25;0.60;;;0.60;;
63394;SDS011;49531;-34.520;150.798;2023-11-21T15:18:52;0.50;;;0.50;;
63394;SDS011;49531;-34.520;150.798;2023-11-21T15:21:20;0.60;;;0.60;;
63394;SDS011;49531;-34.520;150.798;2023-11-21T15:23:49;1.35;;;0.70;;
63394;SDS011;49531;-34.520;150.798;2023-11-21T15:26:17;0.55;;;0.55;;
63394;SDS011;49531;-34.520;150.798;2023-11-21T15:28:44;0.60;;;0.60;;